sensor_id;sensor_type;location;lat;lon;timestamp;temperature;humidity
8633;DHT22;4354;49.832;10.746;2022-08-03T00:00:22;16.40;99.90
8633;DHT22;4354;49.832;10.746;2022-08-03T00:02:51;16.40;99.90
8633;DHT22;4354;49.832;10.746;2022-08-03T00:05:18;16.40;99.90
8633;DHT22;4354;49.832;10.746;2022-08-03T00:07:45;16.30;99.90
8633;DHT22;4354;49.832;10.746;2022-08-03T00:10:14;16.30;99.90
8633;DHT22;4354;49.832;10.746;2022-08-03T00:12:40;16.10;99.90
8633;DHT22;4354;49.832;10.746;2022-08-03T00:15:08;16.20;99.90
8633;DHT22;4354;49.832;10.746;2022-08-03T00:17:41;16.10;99.90
8633;DHT22;4354;49.832;10.746;2022-08-03T00:20:22;16.10;99.90
8633;DHT22;4354;49.832;10.746;2022-08-03T00:22:49;16.10;99.90
8633;DHT22;4354;49.832;10.746;2022-08-03T00:25:16;16.00;99.90
8633;DHT22;4354;49.832;10.746;2022-08-03T00:27:46;16.00;99.90
8633;DHT22;4354;49.832;10.746;2022-08-03T00:30:14;15.90;99.90
8633;DHT22;4354;49.832;10.746;2022-08-03T00:32:42;16.00;99.90
8633;DHT22;4354;49.832;10.746;2022-08-03T00:35:11;15.90;99.90
8633;DHT22;4354;49.832;10.746;2022-08-03T00:37:58;15.90;99.90
8633;DHT22;4354;49.832;10.746;2022-08-03T00:40:25;15.90;99.90
8633;DHT22;4354;49.832;10.746;2022-08-03T00:42:55;15.80;99.90
8633;DHT22;4354;49.832;10.746;2022-08-03T00:45:30;15.80;99.90
8633;DHT22;4354;49.832;10.746;2022-08-03T00:47:58;15.70;99.90
8633;DHT22;4354;49.832;10.746;2022-08-03T00:50:27;15.70;99.90
8633;DHT22;4354;49.832;10.746;2022-08-03T00:52:56;15.70;99.90
8633;DHT22;4354;49.832;10.746;2022-08-03T00:55:23;15.70;99.90
8633;DHT22;4354;49.832;10.746;2022-08-03T00:57:50;15.60;99.90
8633;DHT22;4354;49.832;10.746;2022-08-03T01:00:21;15.60;99.90
8633;DHT22;4354;49.832;10.746;2022-08-03T01:02:48;15.60;99.90
8633;DHT22;4354;49.832;10.746;2022-08-03T01:05:15;15.50;99.90
8633;DHT22;4354;49.832;10.746;2022-08-03T01:11:05;15.40;99.90
8633;DHT22;4354;49.832;10.746;2022-08-03T01:13:45;15.40;99.90
8633;DHT22;4354;49.832;10.746;2022-08-03T01:16:36;15.40;99.90
8633;DHT22;4354;49.832;10.746;2022-08-03T01:25:13;15.10;99.90
8633;DHT22;4354;49.832;10.746;2022-08-03T01:30:26;14.90;99.90
8633;DHT22;4354;49.832;10.746;2022-08-03T01:33:02;14.90;99.90
8633;DHT22;4354;49.832;10.746;2022-08-03T01:35:46;14.90;99.90
8633;DHT22;4354;49.832;10.746;2022-08-03T01:38:22;14.90;99.90
8633;DHT22;4354;49.832;10.746;2022-08-03T01:40:51;14.90;99.90
8633;DHT22;4354;49.832;10.746;2022-08-03T01:43:24;14.90;99.90
8633;DHT22;4354;49.832;10.746;2022-08-03T01:46:14;14.70;99.90
8633;DHT22;4354;49.832;10.746;2022-08-03T01:48:42;14.70;99.90
8633;DHT22;4354;49.832;10.746;2022-08-03T01:51:11;14.70;99.90
8633;DHT22;4354;49.832;10.746;2022-08-03T01:53:40;14.60;99.90
8633;DHT22;4354;49.832;10.746;2022-08-03T01:56:10;14.50;99.90
8633;DHT22;4354;49.832;10.746;2022-08-03T01:58:39;14.40;99.90
8633;DHT22;4354;49.832;10.746;2022-08-03T02:01:08;14.40;99.90
8633;DHT22;4354;49.832;10.746;2022-08-03T02:03:37;14.40;99.90
8633;DHT22;4354;49.832;10.746;2022-08-03T02:06:26;14.20;99.90
8633;DHT22;4354;49.832;10.746;2022-08-03T02:09:19;14.20;99.90
8633;DHT22;4354;49.832;10.746;2022-08-03T02:11:47;14.20;99.90
8633;DHT22;4354;49.832;10.746;2022-08-03T02:14:15;14.20;99.90
8633;DHT22;4354;49.832;10.746;2022-08-03T02:16:43;14.10;99.90
8633;DHT22;4354;49.832;10.746;2022-08-03T02:19:12;14.00;99.90
8633;DHT22;4354;49.832;10.746;2022-08-03T02:21:40;14.20;99.90
8633;DHT22;4354;49.832;10.746;2022-08-03T02:24:27;14.00;99.90
8633;DHT22;4354;49.832;10.746;2022-08-03T02:26:55;14.00;99.90
8633;DHT22;4354;49.832;10.746;2022-08-03T02:29:25;13.90;99.90
8633;DHT22;4354;49.832;10.746;2022-08-03T02:32:09;13.90;99.90
8633;DHT22;4354;49.832;10.746;2022-08-03T02:34:39;13.80;99.90
8633;DHT22;4354;49.832;10.746;2022-08-03T02:37:09;13.80;99.90
8633;DHT22;4354;49.832;10.746;2022-08-03T02:39:38;13.70;99.90
8633;DHT22;4354;49.832;10.746;2022-08-03T02:42:08;13.70;99.90
8633;DHT22;4354;49.832;10.746;2022-08-03T02:44:39;13.60;99.90
8633;DHT22;4354;49.832;10.746;2022-08-03T02:47:13;13.60;99.90
8633;DHT22;4354;49.832;10.746;2022-08-03T02:49:41;13.70;99.90
8633;DHT22;4354;49.832;10.746;2022-08-03T02:52:22;13.60;99.90
8633;DHT22;4354;49.832;10.746;2022-08-03T02:54:52;13.70;99.90
8633;DHT22;4354;49.832;10.746;2022-08-03T02:57:20;13.70;99.90
8633;DHT22;4354;49.832;10.746;2022-08-03T02:59:48;13.80;99.90
8633;DHT22;4354;49.832;10.746;2022-08-03T03:02:17;13.80;99.90
8633;DHT22;4354;49.832;10.746;2022-08-03T03:04:45;13.90;99.90
8633;DHT22;4354;49.832;10.746;2022-08-03T03:07:33;13.70;99.90
8633;DHT22;4354;49.832;10.746;2022-08-03T03:10:19;13.80;99.90
8633;DHT22;4354;49.832;10.746;2022-08-03T03:12:49;13.70;99.90
8633;DHT22;4354;49.832;10.746;2022-08-03T03:15:21;13.50;99.90
8633;DHT22;4354;49.832;10.746;2022-08-03T03:17:48;13.50;99.90
8633;DHT22;4354;49.832;10.746;2022-08-03T03:20:16;13.50;99.90
8633;DHT22;4354;49.832;10.746;2022-08-03T03:22:55;13.30;99.90
8633;DHT22;4354;49.832;10.746;2022-08-03T03:25:24;13.30;99.90
8633;DHT22;4354;49.832;10.746;2022-08-03T03:27:51;13.20;99.90
8633;DHT22;4354;49.832;10.746;2022-08-03T03:30:17;13.30;99.90
8633;DHT22;4354;49.832;10.746;2022-08-03T03:32:48;13.20;99.90
8633;DHT22;4354;49.832;10.746;2022-08-03T03:35:17;13.20;99.90
8633;DHT22;4354;49.832;10.746;2022-08-03T03:37:44;13.10;99.90
8633;DHT22;4354;49.832;10.746;2022-08-03T03:40:11;13.10;99.90
8633;DHT22;4354;49.832;10.746;2022-08-03T03:42:37;13.00;99.90
8633;DHT22;4354;49.832;10.746;2022-08-03T03:45:06;13.00;99.90
8633;DHT22;4354;49.832;10.746;2022-08-03T03:47:34;13.00;99.90
8633;DHT22;4354;49.832;10.746;2022-08-03T03:50:02;13.00;99.90
8633;DHT22;4354;49.832;10.746;2022-08-03T03:52:31;12.90;99.90
8633;DHT22;4354;49.832;10.746;2022-08-03T03:54:58;13.00;99.90
8633;DHT22;4354;49.832;10.746;2022-08-03T03:57:27;13.00;99.90
8633;DHT22;4354;49.832;10.746;2022-08-03T03:59:54;13.00;99.90
8633;DHT22;4354;49.832;10.746;2022-08-03T04:02:21;13.00;99.90
8633;DHT22;4354;49.832;10.746;2022-08-03T04:04:48;13.00;99.90
8633;DHT22;4354;49.832;10.746;2022-08-03T04:07:45;13.00;99.90
8633;DHT22;4354;49.832;10.746;2022-08-03T04:10:33;12.90;99.90
8633;DHT22;4354;49.832;10.746;2022-08-03T04:13:20;12.90;99.90
8633;DHT22;4354;49.832;10.746;2022-08-03T04:15:49;12.90;99.90
8633;DHT22;4354;49.832;10.746;2022-08-03T04:18:18;12.90;99.90
8633;DHT22;4354;49.832;10.746;2022-08-03T04:20:47;12.90;99.90
8633;DHT22;4354;49.832;10.746;2022-08-03T04:23:19;12.90;99.90
8633;DHT22;4354;49.832;10.746;2022-08-03T04:25:48;13.00;99.90
8633;DHT22;4354;49.832;10.746;2022-08-03T04:28:15;13.20;99.90
8633;DHT22;4354;49.832;10.746;2022-08-03T04:30:58;13.30;99.90
8633;DHT22;4354;49.832;10.746;2022-08-03T04:33:28;13.40;99.90
8633;DHT22;4354;49.832;10.746;2022-08-03T04:35:59;13.50;99.90
8633;DHT22;4354;49.832;10.746;2022-08-03T04:38:31;13.60;99.90
8633;DHT22;4354;49.832;10.746;2022-08-03T04:41:00;13.60;99.90
8633;DHT22;4354;49.832;10.746;2022-08-03T04:43:27;13.70;99.90
8633;DHT22;4354;49.832;10.746;2022-08-03T04:45:54;13.80;99.90
8633;DHT22;4354;49.832;10.746;2022-08-03T04:48:22;13.90;99.90
8633;DHT22;4354;49.832;10.746;2022-08-03T04:50:50;13.90;99.90
8633;DHT22;4354;49.832;10.746;2022-08-03T04:53:17;14.00;99.90
8633;DHT22;4354;49.832;10.746;2022-08-03T04:55:45;14.10;99.90
8633;DHT22;4354;49.832;10.746;2022-08-03T04:58:12;14.10;99.90
8633;DHT22;4354;49.832;10.746;2022-08-03T05:00:39;14.20;99.90
8633;DHT22;4354;49.832;10.746;2022-08-03T05:03:05;14.10;99.90
8633;DHT22;4354;49.832;10.746;2022-08-03T05:05:51;14.20;99.90
8633;DHT22;4354;49.832;10.746;2022-08-03T05:08:27;14.30;99.90
8633;DHT22;4354;49.832;10.746;2022-08-03T05:10:55;14.30;99.90
8633;DHT22;4354;49.832;10.746;2022-08-03T05:13:25;14.40;99.90
8633;DHT22;4354;49.832;10.746;2022-08-03T05:15:52;14.40;99.90
8633;DHT22;4354;49.832;10.746;2022-08-03T05:18:18;14.50;99.90
8633;DHT22;4354;49.832;10.746;2022-08-03T05:20:45;14.60;99.90
8633;DHT22;4354;49.832;10.746;2022-08-03T05:23:12;14.70;99.90
8633;DHT22;4354;49.832;10.746;2022-08-03T05:25:39;14.90;99.90
8633;DHT22;4354;49.832;10.746;2022-08-03T05:28:15;14.90;99.90
8633;DHT22;4354;49.832;10.746;2022-08-03T05:30:42;15.00;99.90
8633;DHT22;4354;49.832;10.746;2022-08-03T05:33:08;15.00;99.90
8633;DHT22;4354;49.832;10.746;2022-08-03T05:35:36;15.20;99.90
8633;DHT22;4354;49.832;10.746;2022-08-03T05:38:24;15.20;99.90
8633;DHT22;4354;49.832;10.746;2022-08-03T05:41:00;15.30;99.90
8633;DHT22;4354;49.832;10.746;2022-08-03T05:43:46;15.30;99.90
8633;DHT22;4354;49.832;10.746;2022-08-03T05:46:13;15.60;99.90
8633;DHT22;4354;49.832;10.746;2022-08-03T05:48:41;15.60;99.90
8633;DHT22;4354;49.832;10.746;2022-08-03T05:51:08;15.80;99.90
8633;DHT22;4354;49.832;10.746;2022-08-03T05:53:41;15.70;99.90
8633;DHT22;4354;49.832;10.746;2022-08-03T05:56:08;15.80;99.90
8633;DHT22;4354;49.832;10.746;2022-08-03T05:58:45;15.80;99.90
8633;DHT22;4354;49.832;10.746;2022-08-03T06:01:14;15.90;99.90
8633;DHT22;4354;49.832;10.746;2022-08-03T06:03:41;16.10;99.90
8633;DHT22;4354;49.832;10.746;2022-08-03T06:06:08;16.20;99.90
8633;DHT22;4354;49.832;10.746;2022-08-03T06:08:35;16.30;99.90
8633;DHT22;4354;49.832;10.746;2022-08-03T06:11:02;16.50;99.90
8633;DHT22;4354;49.832;10.746;2022-08-03T06:13:29;16.60;99.90
8633;DHT22;4354;49.832;10.746;2022-08-03T06:15:56;16.70;99.90
8633;DHT22;4354;49.832;10.746;2022-08-03T06:18:22;16.90;99.90
8633;DHT22;4354;49.832;10.746;2022-08-03T06:20:53;17.10;99.90
8633;DHT22;4354;49.832;10.746;2022-08-03T06:23:21;17.20;99.90
8633;DHT22;4354;49.832;10.746;2022-08-03T06:25:48;17.30;99.90
8633;DHT22;4354;49.832;10.746;2022-08-03T06:28:14;17.40;99.90
8633;DHT22;4354;49.832;10.746;2022-08-03T06:31:02;17.60;99.90
8633;DHT22;4354;49.832;10.746;2022-08-03T06:33:32;17.80;99.90
8633;DHT22;4354;49.832;10.746;2022-08-03T06:36:19;18.00;99.90
8633;DHT22;4354;49.832;10.746;2022-08-03T06:38:45;18.20;99.90
8633;DHT22;4354;49.832;10.746;2022-08-03T06:41:12;18.40;99.90
8633;DHT22;4354;49.832;10.746;2022-08-03T06:43:39;18.50;99.90
8633;DHT22;4354;49.832;10.746;2022-08-03T06:46:26;18.70;99.90
8633;DHT22;4354;49.832;10.746;2022-08-03T06:48:52;18.80;99.90
8633;DHT22;4354;49.832;10.746;2022-08-03T06:51:19;19.00;99.90
8633;DHT22;4354;49.832;10.746;2022-08-03T06:54:06;19.20;99.90
8633;DHT22;4354;49.832;10.746;2022-08-03T06:56:33;19.30;99.90
8633;DHT22;4354;49.832;10.746;2022-08-03T06:59:00;19.50;99.90
8633;DHT22;4354;49.832;10.746;2022-08-03T07:01:26;19.60;99.90
8633;DHT22;4354;49.832;10.746;2022-08-03T07:03:53;19.80;99.90
8633;DHT22;4354;49.832;10.746;2022-08-03T07:06:21;19.80;99.90
8633;DHT22;4354;49.832;10.746;2022-08-03T07:08:48;20.00;99.90
8633;DHT22;4354;49.832;10.746;2022-08-03T07:11:20;20.10;99.90
8633;DHT22;4354;49.832;10.746;2022-08-03T07:13:46;20.30;99.90
8633;DHT22;4354;49.832;10.746;2022-08-03T07:16:13;20.40;99.90
8633;DHT22;4354;49.832;10.746;2022-08-03T07:18:40;20.60;99.90
8633;DHT22;4354;49.832;10.746;2022-08-03T07:21:06;20.80;99.90
8633;DHT22;4354;49.832;10.746;2022-08-03T07:23:36;21.00;99.90
8633;DHT22;4354;49.832;10.746;2022-08-03T07:26:03;21.20;99.90
8633;DHT22;4354;49.832;10.746;2022-08-03T07:28:30;21.40;99.90
8633;DHT22;4354;49.832;10.746;2022-08-03T07:30:56;21.70;99.90
8633;DHT22;4354;49.832;10.746;2022-08-03T07:33:24;22.60;99.90
8633;DHT22;4354;49.832;10.746;2022-08-03T07:35:51;24.50;99.90
8633;DHT22;4354;49.832;10.746;2022-08-03T07:38:18;26.60;99.90
8633;DHT22;4354;49.832;10.746;2022-08-03T07:40:46;28.90;99.90
8633;DHT22;4354;49.832;10.746;2022-08-03T07:43:13;30.90;94.20
8633;DHT22;4354;49.832;10.746;2022-08-03T07:45:40;32.70;86.00
8633;DHT22;4354;49.832;10.746;2022-08-03T07:48:07;34.10;75.50
8633;DHT22;4354;49.832;10.746;2022-08-03T07:50:38;35.10;68.00
8633;DHT22;4354;49.832;10.746;2022-08-03T07:53:05;35.50;62.10
8633;DHT22;4354;49.832;10.746;2022-08-03T07:55:32;36.30;60.00
8633;DHT22;4354;49.832;10.746;2022-08-03T07:58:08;36.90;56.90
8633;DHT22;4354;49.832;10.746;2022-08-03T08:00:37;37.70;52.90
8633;DHT22;4354;49.832;10.746;2022-08-03T08:03:04;37.50;54.00
8633;DHT22;4354;49.832;10.746;2022-08-03T08:05:32;37.70;52.00
8633;DHT22;4354;49.832;10.746;2022-08-03T08:08:00;39.10;48.30
8633;DHT22;4354;49.832;10.746;2022-08-03T08:10:27;39.30;48.20
8633;DHT22;4354;49.832;10.746;2022-08-03T08:12:56;38.60;48.60
8633;DHT22;4354;49.832;10.746;2022-08-03T08:15:23;39.20;49.10
8633;DHT22;4354;49.832;10.746;2022-08-03T08:17:52;39.60;45.90
8633;DHT22;4354;49.832;10.746;2022-08-03T08:20:30;39.00;46.40
8633;DHT22;4354;49.832;10.746;2022-08-03T08:23:03;39.00;47.00
8633;DHT22;4354;49.832;10.746;2022-08-03T08:25:51;40.10;45.00
8633;DHT22;4354;49.832;10.746;2022-08-03T08:28:19;40.70;43.70
8633;DHT22;4354;49.832;10.746;2022-08-03T08:30:59;40.00;44.30
8633;DHT22;4354;49.832;10.746;2022-08-03T08:33:26;41.50;43.40
8633;DHT22;4354;49.832;10.746;2022-08-03T08:36:13;42.10;42.10
8633;DHT22;4354;49.832;10.746;2022-08-03T08:38:41;42.60;40.60
8633;DHT22;4354;49.832;10.746;2022-08-03T08:41:10;43.40;39.20
8633;DHT22;4354;49.832;10.746;2022-08-03T08:43:38;43.50;38.90
8633;DHT22;4354;49.832;10.746;2022-08-03T08:46:05;44.20;37.30
8633;DHT22;4354;49.832;10.746;2022-08-03T08:48:40;44.70;37.50
8633;DHT22;4354;49.832;10.746;2022-08-03T08:51:08;45.20;36.30
8633;DHT22;4354;49.832;10.746;2022-08-03T08:53:36;43.10;36.90
8633;DHT22;4354;49.832;10.746;2022-08-03T08:56:04;42.60;37.70
8633;DHT22;4354;49.832;10.746;2022-08-03T08:58:43;42.70;38.00
8633;DHT22;4354;49.832;10.746;2022-08-03T09:01:12;43.60;36.90
8633;DHT22;4354;49.832;10.746;2022-08-03T09:03:40;43.10;37.50
8633;DHT22;4354;49.832;10.746;2022-08-03T09:06:06;44.00;35.80
8633;DHT22;4354;49.832;10.746;2022-08-03T09:08:33;44.30;36.60
8633;DHT22;4354;49.832;10.746;2022-08-03T09:11:00;44.20;35.60
8633;DHT22;4354;49.832;10.746;2022-08-03T09:13:27;43.60;37.00
8633;DHT22;4354;49.832;10.746;2022-08-03T09:16:18;44.00;36.60
8633;DHT22;4354;49.832;10.746;2022-08-03T09:18:47;44.60;35.60
8633;DHT22;4354;49.832;10.746;2022-08-03T09:23:59;45.40;34.70
8633;DHT22;4354;49.832;10.746;2022-08-03T09:26:34;45.20;35.00
8633;DHT22;4354;49.832;10.746;2022-08-03T09:31:43;44.60;35.30
8633;DHT22;4354;49.832;10.746;2022-08-03T09:34:13;45.30;34.60
8633;DHT22;4354;49.832;10.746;2022-08-03T09:36:46;44.90;34.10
8633;DHT22;4354;49.832;10.746;2022-08-03T09:39:18;44.00;35.40
8633;DHT22;4354;49.832;10.746;2022-08-03T09:44:36;44.80;33.30
8633;DHT22;4354;49.832;10.746;2022-08-03T09:47:04;45.20;33.50
8633;DHT22;4354;49.832;10.746;2022-08-03T09:49:31;43.90;33.40
8633;DHT22;4354;49.832;10.746;2022-08-03T09:52:17;44.40;32.70
8633;DHT22;4354;49.832;10.746;2022-08-03T09:55:13;45.20;32.10
8633;DHT22;4354;49.832;10.746;2022-08-03T09:58:06;45.20;32.90
8633;DHT22;4354;49.832;10.746;2022-08-03T10:03:23;47.00;31.30
8633;DHT22;4354;49.832;10.746;2022-08-03T10:05:50;46.80;31.60
8633;DHT22;4354;49.832;10.746;2022-08-03T10:08:24;47.20;31.00
8633;DHT22;4354;49.832;10.746;2022-08-03T10:10:51;46.90;30.10
8633;DHT22;4354;49.832;10.746;2022-08-03T10:13:21;46.30;29.50
8633;DHT22;4354;49.832;10.746;2022-08-03T10:15:48;45.70;30.30
8633;DHT22;4354;49.832;10.746;2022-08-03T10:18:35;45.40;31.40
8633;DHT22;4354;49.832;10.746;2022-08-03T10:21:06;45.50;30.80
8633;DHT22;4354;49.832;10.746;2022-08-03T10:23:33;45.40;30.10
8633;DHT22;4354;49.832;10.746;2022-08-03T10:26:06;44.30;31.60
8633;DHT22;4354;49.832;10.746;2022-08-03T10:28:49;45.10;31.60
8633;DHT22;4354;49.832;10.746;2022-08-03T10:31:19;45.60;31.30
8633;DHT22;4354;49.832;10.746;2022-08-03T10:33:49;45.00;30.90
8633;DHT22;4354;49.832;10.746;2022-08-03T10:36:22;45.30;29.80
8633;DHT22;4354;49.832;10.746;2022-08-03T10:38:50;44.00;30.90
8633;DHT22;4354;49.832;10.746;2022-08-03T10:41:20;43.20;31.60
8633;DHT22;4354;49.832;10.746;2022-08-03T10:43:57;43.20;31.10
8633;DHT22;4354;49.832;10.746;2022-08-03T10:46:25;42.10;31.40
8633;DHT22;4354;49.832;10.746;2022-08-03T10:48:53;42.20;31.40
8633;DHT22;4354;49.832;10.746;2022-08-03T10:51:22;43.00;31.50
8633;DHT22;4354;49.832;10.746;2022-08-03T10:53:49;44.00;31.90
8633;DHT22;4354;49.832;10.746;2022-08-03T11:02:12;43.80;31.00
8633;DHT22;4354;49.832;10.746;2022-08-03T11:04:40;42.70;31.80
8633;DHT22;4354;49.832;10.746;2022-08-03T11:07:23;43.40;32.30
8633;DHT22;4354;49.832;10.746;2022-08-03T11:09:52;43.90;31.10
8633;DHT22;4354;49.832;10.746;2022-08-03T11:12:28;42.30;30.80
8633;DHT22;4354;49.832;10.746;2022-08-03T11:14:59;42.80;31.80
8633;DHT22;4354;49.832;10.746;2022-08-03T11:17:26;42.60;31.10
8633;DHT22;4354;49.832;10.746;2022-08-03T11:19:53;42.30;31.20
8633;DHT22;4354;49.832;10.746;2022-08-03T11:22:23;42.20;33.20
8633;DHT22;4354;49.832;10.746;2022-08-03T11:27:24;42.70;31.20
8633;DHT22;4354;49.832;10.746;2022-08-03T11:35:27;41.90;31.30
8633;DHT22;4354;49.832;10.746;2022-08-03T11:46:07;39.90;32.40
8633;DHT22;4354;49.832;10.746;2022-08-03T11:48:39;39.80;33.40
8633;DHT22;4354;49.832;10.746;2022-08-03T11:51:25;39.60;34.20
8633;DHT22;4354;49.832;10.746;2022-08-03T11:53:59;39.50;34.10
8633;DHT22;4354;49.832;10.746;2022-08-03T11:56:27;39.50;34.90
8633;DHT22;4354;49.832;10.746;2022-08-03T11:58:56;39.70;34.30
8633;DHT22;4354;49.832;10.746;2022-08-03T12:01:43;40.20;34.60
8633;DHT22;4354;49.832;10.746;2022-08-03T12:04:11;40.70;34.90
8633;DHT22;4354;49.832;10.746;2022-08-03T12:06:38;40.40;34.20
8633;DHT22;4354;49.832;10.746;2022-08-03T12:09:21;40.10;33.70
8633;DHT22;4354;49.832;10.746;2022-08-03T12:11:48;39.90;33.80
8633;DHT22;4354;49.832;10.746;2022-08-03T12:14:26;39.30;34.60
8633;DHT22;4354;49.832;10.746;2022-08-03T12:17:13;38.20;35.30
8633;DHT22;4354;49.832;10.746;2022-08-03T12:19:41;37.50;36.10
8633;DHT22;4354;49.832;10.746;2022-08-03T12:22:08;37.20;37.50
8633;DHT22;4354;49.832;10.746;2022-08-03T12:24:43;37.40;38.40
8633;DHT22;4354;49.832;10.746;2022-08-03T12:27:22;37.70;37.40
8633;DHT22;4354;49.832;10.746;2022-08-03T12:29:53;37.30;35.80
8633;DHT22;4354;49.832;10.746;2022-08-03T12:32:25;37.10;37.00
8633;DHT22;4354;49.832;10.746;2022-08-03T12:34:51;37.30;38.00
8633;DHT22;4354;49.832;10.746;2022-08-03T12:37:20;37.20;37.10
8633;DHT22;4354;49.832;10.746;2022-08-03T12:39:53;36.80;36.90
8633;DHT22;4354;49.832;10.746;2022-08-03T12:42:35;36.20;38.00
8633;DHT22;4354;49.832;10.746;2022-08-03T12:47:58;36.40;37.60
8633;DHT22;4354;49.832;10.746;2022-08-03T12:50:31;36.50;38.00
8633;DHT22;4354;49.832;10.746;2022-08-03T12:53:00;36.80;37.60
8633;DHT22;4354;49.832;10.746;2022-08-03T12:55:27;37.00;37.20
8633;DHT22;4354;49.832;10.746;2022-08-03T12:58:33;36.90;37.90
8633;DHT22;4354;49.832;10.746;2022-08-03T13:01:02;37.10;37.70
8633;DHT22;4354;49.832;10.746;2022-08-03T13:03:46;37.10;37.00
8633;DHT22;4354;49.832;10.746;2022-08-03T13:06:23;37.20;37.90
8633;DHT22;4354;49.832;10.746;2022-08-03T13:09:05;37.10;37.30
8633;DHT22;4354;49.832;10.746;2022-08-03T13:11:32;37.00;37.40
8633;DHT22;4354;49.832;10.746;2022-08-03T13:14:19;36.90;38.20
8633;DHT22;4354;49.832;10.746;2022-08-03T13:16:47;37.00;37.70
8633;DHT22;4354;49.832;10.746;2022-08-03T13:19:14;36.70;37.90
8633;DHT22;4354;49.832;10.746;2022-08-03T13:21:42;36.70;38.10
8633;DHT22;4354;49.832;10.746;2022-08-03T13:24:30;36.70;38.70
8633;DHT22;4354;49.832;10.746;2022-08-03T13:26:58;36.50;39.50
8633;DHT22;4354;49.832;10.746;2022-08-03T13:29:25;36.50;38.00
8633;DHT22;4354;49.832;10.746;2022-08-03T13:31:52;36.50;38.10
8633;DHT22;4354;49.832;10.746;2022-08-03T13:34:18;36.50;38.20
8633;DHT22;4354;49.832;10.746;2022-08-03T13:36:52;36.50;38.00
8633;DHT22;4354;49.832;10.746;2022-08-03T13:39:40;36.30;38.60
8633;DHT22;4354;49.832;10.746;2022-08-03T13:42:29;35.90;39.00
8633;DHT22;4354;49.832;10.746;2022-08-03T13:44:56;35.90;38.10
8633;DHT22;4354;49.832;10.746;2022-08-03T13:47:23;35.90;38.10
8633;DHT22;4354;49.832;10.746;2022-08-03T13:49:49;35.70;38.30
8633;DHT22;4354;49.832;10.746;2022-08-03T13:52:26;35.40;38.90
8633;DHT22;4354;49.832;10.746;2022-08-03T13:54:53;35.20;39.70
8633;DHT22;4354;49.832;10.746;2022-08-03T13:57:20;35.30;39.80
8633;DHT22;4354;49.832;10.746;2022-08-03T14:00:07;35.30;39.30
8633;DHT22;4354;49.832;10.746;2022-08-03T14:02:34;35.20;38.60
8633;DHT22;4354;49.832;10.746;2022-08-03T14:05:01;35.10;39.20
8633;DHT22;4354;49.832;10.746;2022-08-03T14:07:28;35.00;38.80
8633;DHT22;4354;49.832;10.746;2022-08-03T14:09:54;35.00;39.40
8633;DHT22;4354;49.832;10.746;2022-08-03T14:12:22;34.90;39.30
8633;DHT22;4354;49.832;10.746;2022-08-03T14:14:49;35.00;39.90
8633;DHT22;4354;49.832;10.746;2022-08-03T14:17:16;34.90;40.20
8633;DHT22;4354;49.832;10.746;2022-08-03T14:19:43;34.90;39.80
8633;DHT22;4354;49.832;10.746;2022-08-03T14:22:20;35.00;39.80
8633;DHT22;4354;49.832;10.746;2022-08-03T14:24:47;35.00;39.50
8633;DHT22;4354;49.832;10.746;2022-08-03T14:27:15;35.10;39.90
8633;DHT22;4354;49.832;10.746;2022-08-03T14:29:42;35.10;39.40
8633;DHT22;4354;49.832;10.746;2022-08-03T14:32:08;35.10;39.10
8633;DHT22;4354;49.832;10.746;2022-08-03T14:34:39;35.10;39.20
8633;DHT22;4354;49.832;10.746;2022-08-03T14:37:06;35.10;39.10
8633;DHT22;4354;49.832;10.746;2022-08-03T14:39:33;35.00;39.00
8633;DHT22;4354;49.832;10.746;2022-08-03T14:42:20;35.00;39.40
8633;DHT22;4354;49.832;10.746;2022-08-03T14:44:47;35.00;39.20
8633;DHT22;4354;49.832;10.746;2022-08-03T14:47:14;34.90;39.80
8633;DHT22;4354;49.832;10.746;2022-08-03T14:49:41;34.90;39.40
8633;DHT22;4354;49.832;10.746;2022-08-03T14:52:28;34.80;39.70
8633;DHT22;4354;49.832;10.746;2022-08-03T14:54:56;34.80;38.60
8633;DHT22;4354;49.832;10.746;2022-08-03T14:57:23;34.50;39.50
8633;DHT22;4354;49.832;10.746;2022-08-03T14:59:50;34.40;39.40
8633;DHT22;4354;49.832;10.746;2022-08-03T15:02:23;34.40;40.50
8633;DHT22;4354;49.832;10.746;2022-08-03T15:04:51;34.30;42.30
8633;DHT22;4354;49.832;10.746;2022-08-03T15:07:18;34.30;40.80
8633;DHT22;4354;49.832;10.746;2022-08-03T15:09:46;34.30;40.20
8633;DHT22;4354;49.832;10.746;2022-08-03T15:12:13;34.30;40.40
8633;DHT22;4354;49.832;10.746;2022-08-03T15:14:39;34.30;40.40
8633;DHT22;4354;49.832;10.746;2022-08-03T15:17:07;34.10;40.90
8633;DHT22;4354;49.832;10.746;2022-08-03T15:19:33;34.10;40.50
8633;DHT22;4354;49.832;10.746;2022-08-03T15:22:20;34.20;40.10
8633;DHT22;4354;49.832;10.746;2022-08-03T15:25:03;34.10;40.60
8633;DHT22;4354;49.832;10.746;2022-08-03T15:27:51;34.10;40.00
8633;DHT22;4354;49.832;10.746;2022-08-03T15:30:30;34.10;40.70
8633;DHT22;4354;49.832;10.746;2022-08-03T15:32:57;34.00;40.60
8633;DHT22;4354;49.832;10.746;2022-08-03T15:35:23;34.00;40.60
8633;DHT22;4354;49.832;10.746;2022-08-03T15:37:50;33.70;39.50
8633;DHT22;4354;49.832;10.746;2022-08-03T15:40:17;33.50;40.20
8633;DHT22;4354;49.832;10.746;2022-08-03T15:42:44;33.50;40.80
8633;DHT22;4354;49.832;10.746;2022-08-03T15:45:11;33.50;41.20
8633;DHT22;4354;49.832;10.746;2022-08-03T15:47:38;33.40;40.60
8633;DHT22;4354;49.832;10.746;2022-08-03T15:50:05;33.40;40.70
8633;DHT22;4354;49.832;10.746;2022-08-03T15:52:35;33.40;40.60
8633;DHT22;4354;49.832;10.746;2022-08-03T15:55:02;33.40;41.40
8633;DHT22;4354;49.832;10.746;2022-08-03T15:57:29;33.30;40.90
8633;DHT22;4354;49.832;10.746;2022-08-03T15:59:56;33.20;40.80
8633;DHT22;4354;49.832;10.746;2022-08-03T16:02:23;33.20;41.10
8633;DHT22;4354;49.832;10.746;2022-08-03T16:04:49;33.20;41.20
8633;DHT22;4354;49.832;10.746;2022-08-03T16:07:17;33.20;40.10
8633;DHT22;4354;49.832;10.746;2022-08-03T16:10:04;33.10;41.50
8633;DHT22;4354;49.832;10.746;2022-08-03T16:12:31;33.20;41.10
8633;DHT22;4354;49.832;10.746;2022-08-03T16:14:58;33.20;40.70
8633;DHT22;4354;49.832;10.746;2022-08-03T16:17:25;33.10;41.10
8633;DHT22;4354;49.832;10.746;2022-08-03T16:19:53;33.10;40.80
8633;DHT22;4354;49.832;10.746;2022-08-03T16:22:21;33.10;41.50
8633;DHT22;4354;49.832;10.746;2022-08-03T16:24:50;32.90;42.10
8633;DHT22;4354;49.832;10.746;2022-08-03T16:27:16;32.90;42.00
8633;DHT22;4354;49.832;10.746;2022-08-03T16:30:05;32.80;41.50
8633;DHT22;4354;49.832;10.746;2022-08-03T16:32:32;32.80;40.70
8633;DHT22;4354;49.832;10.746;2022-08-03T16:35:00;32.80;41.10
8633;DHT22;4354;49.832;10.746;2022-08-03T16:37:26;32.90;41.30
8633;DHT22;4354;49.832;10.746;2022-08-03T16:40:13;32.70;42.60
8633;DHT22;4354;49.832;10.746;2022-08-03T16:42:45;32.70;41.40
8633;DHT22;4354;49.832;10.746;2022-08-03T16:45:12;32.80;41.40
8633;DHT22;4354;49.832;10.746;2022-08-03T16:47:39;32.70;41.40
8633;DHT22;4354;49.832;10.746;2022-08-03T16:50:06;32.70;41.10
8633;DHT22;4354;49.832;10.746;2022-08-03T16:52:46;32.60;41.70
8633;DHT22;4354;49.832;10.746;2022-08-03T16:55:14;32.50;42.20
8633;DHT22;4354;49.832;10.746;2022-08-03T16:58:02;32.40;42.00